Fernley, Nevada
Current Conditions -  °F | °C
As of 5:55 AM on Thursday 18 Dec 2014 (Local Time) from KRNO Reporting Station
Few Clouds Few Clouds  
Wind Chill: 31°   Ceiling: Unl
Heat Index: 31°   Visibility: 10mi
Dew Point: 27°   Wind: 0mph
Humidity: 85%   Direction: NA
Pressure: 30.11"   Gusts: NA
Location:  39.6°N, 119.24°W
Report Text: KRNO 181355Z 00000KT 10SM FEW070 M01/M03 A3011 RMK AO2 SLP198 T10061028
Loading
Personal Weather Stations






























Interactive Weather Map New forecast layout! Learn more

10-Day Weather Forecast

Advertisements
Track Severe Weather on mobile